createdAt,value
2022-10-25T01:13:28.394Z,6.60
2022-10-25T01:16:11.468Z,7.20
2022-10-25T01:19:06.168Z,7.70
2022-10-25T01:21:47.520Z,7.60
2022-10-25T01:24:53.446Z,6.80
2022-10-25T01:28:15.707Z,7.40
2022-10-25T01:31:22.406Z,7.40
2022-10-25T01:34:03.222Z,7.50
2022-10-25T01:36:52.626Z,7.40
2022-10-25T01:39:31.052Z,7.70
2022-10-25T01:42:09.546Z,6.80
2022-10-25T01:45:21.297Z,7.30
2022-10-25T01:48:10.035Z,7.30
2022-10-25T01:50:47.633Z,7.20
2022-10-25T01:53:18.275Z,7.10
2022-10-25T01:55:59.652Z,6.20
2022-10-25T01:58:48.249Z,7.20
2022-10-25T02:01:30.427Z,8.20
2022-10-25T02:04:08.531Z,7.60
2022-10-25T02:06:49.066Z,7.90
2022-10-25T02:09:34.992Z,7.20
2022-10-25T02:12:09.512Z,6.10
2022-10-25T02:14:42.127Z,6.30
2022-10-25T02:17:21.135Z,7.20
2022-10-25T02:19:59.214Z,6.70
2022-10-25T02:22:33.306Z,7.60
2022-10-25T02:25:03.762Z,6.90
2022-10-25T02:27:35.534Z,7.20
2022-10-25T02:30:07.195Z,6.40
2022-10-25T02:32:37.987Z,6.80
2022-10-25T02:35:16.314Z,7.20
2022-10-25T02:37:47.103Z,7.60
2022-10-25T02:40:18.012Z,7.40
2022-10-25T02:42:48.241Z,7.70
2022-10-25T02:45:18.526Z,7.20
2022-10-25T02:47:49.214Z,7.50
2022-10-25T02:50:19.995Z,7.70
2022-10-25T02:52:50.346Z,7.90
2022-10-25T02:55:20.745Z,8.20
2022-10-25T02:57:51.074Z,8.80
2022-10-25T03:00:21.563Z,7.30
2022-10-25T03:02:57.137Z,7.30
2022-10-25T03:05:27.510Z,7.60
2022-10-25T03:07:57.932Z,7.20
2022-10-25T03:10:28.321Z,7.50
2022-10-25T03:12:58.901Z,7.70
2022-10-25T03:15:33.331Z,8.30
2022-10-25T03:18:03.842Z,7.80
2022-10-25T03:20:34.392Z,6.60
2022-10-25T03:23:05.170Z,6.70
2022-10-25T03:25:35.625Z,6.80
2022-10-25T03:28:06.132Z,7.60
2022-10-25T03:30:37.131Z,7.90
2022-10-25T03:33:08.813Z,8.00
2022-10-25T03:35:39.432Z,8.10
2022-10-25T03:38:09.972Z,7.60
2022-10-25T03:40:40.512Z,7.00
2022-10-25T03:43:11.153Z,7.00
2022-10-25T03:45:41.732Z,7.60
2022-10-25T03:48:12.413Z,7.50
2022-10-25T03:50:43.432Z,7.40
2022-10-25T03:53:13.890Z,7.60
2022-10-25T03:55:44.262Z,7.40
2022-10-25T03:58:16.593Z,6.70
2022-10-25T04:00:47.144Z,6.30
2022-10-25T04:03:17.622Z,6.60
2022-10-25T04:05:47.991Z,6.70
2022-10-25T04:08:18.492Z,7.30
2022-10-25T04:10:49.046Z,6.20
2022-10-25T04:13:19.737Z,5.80
2022-10-25T04:15:50.089Z,6.00
2022-10-25T04:18:21.369Z,6.30
2022-10-25T04:20:53.297Z,6.10
2022-10-25T04:23:23.713Z,5.70
2022-10-25T04:25:57.049Z,7.30
2022-10-25T04:28:29.768Z,7.10
2022-10-25T04:31:03.100Z,5.90
2022-10-25T04:33:33.493Z,5.50
2022-10-25T04:36:04.126Z,5.20
2022-10-25T04:38:37.068Z,5.60
2022-10-25T04:41:07.896Z,5.90
2022-10-25T04:43:38.595Z,5.70
2022-10-25T04:46:09.627Z,5.70
2022-10-25T04:48:41.266Z,6.10
2022-10-25T04:51:13.274Z,6.70
2022-10-25T04:53:43.857Z,6.10
2022-10-25T04:56:15.786Z,5.60
2022-10-25T04:58:46.293Z,6.80
2022-10-25T05:01:18.836Z,7.30
2022-10-25T05:03:49.646Z,6.70
2022-10-25T05:06:24.233Z,6.60
2022-10-25T05:08:55.633Z,5.60
